Time;durP1;ratioP1;P1;durP2;ratioP2;P2;SDS_P1;SDS_P2;PMS_P1;PMS_P2;Temp;Humidity;BMP_temperature;BMP_pressure;BME280_temperature;BME280_humidity;BME280_pressure;Samples;Min_cycle;Max_cycle;Signal;HPM_P1;HPM_P2
2023/03/08 00:01:44;;;;;;;;;;;;;;;;;;4946561;28;20397;-81
2023/03/08 00:04:10;;;;;;;;;;;;;;;;;;4944952;28;20159;-81
2023/03/08 00:06:35;;;;;;;;;;;;;;;;;;4960763;28;19957;-81
2023/03/08 00:09:00;;;;;;;;;;;;;;;;;;4950696;28;19915;-82
2023/03/08 00:11:26;;;;;;;;;;;;;;;;;;4941373;28;19922;-81
2023/03/08 00:13:51;;;;;;;;;;;;;;;;;;4951400;28;19918;-81
2023/03/08 00:16:17;;;;;;;;;;;;;;;;;;4950033;28;19930;-81
2023/03/08 00:18:42;;;;;;;;;;;;;;;;;;4935891;28;19925;-81
2023/03/08 00:21:11;;;;;;;;;;;;;;;;;;4952207;28;19930;-81
2023/03/08 00:23:37;;;;;;;;;;;;;;;;;;4965272;28;20183;-81
2023/03/08 00:26:02;;;;;;;;;;;;;;;;;;4952728;28;19918;-82
2023/03/08 00:28:28;;;;;;;;;;;;;;;;;;4955493;28;19926;-81
2023/03/08 00:30:57;;;;;;;;;;;;;;;;;;4942090;28;19973;-82
2023/03/08 00:33:22;;;;;;;;;;;;;;;;;;4952071;28;20026;-82
2023/03/08 00:35:54;;;;;;;;;;;;;;;;;;4933061;28;19918;-82
2023/03/08 00:38:20;;;;;;;;;;;;;;;;;;4933448;28;20012;-81
2023/03/08 00:40:45;;;;;;;;;;;;;;;;;;4947526;28;19961;-82
2023/03/08 00:43:10;;;;;;;;;;;;;;;;;;4949364;28;19915;-81
2023/03/08 00:45:36;;;;;;;;;;;;;;;;;;4934044;28;20295;-82
2023/03/08 00:48:01;;;;;;;;;;;;;;;;;;4934669;28;20835;-82
2023/03/08 00:50:26;;;;;;;;;;;;;;;;;;4936324;28;20086;-82
2023/03/08 00:52:51;;;;;;;;;;;;;;;;;;4918696;28;19918;-82
2023/03/08 00:55:17;;;;;;;;;;;;;;;;;;4946507;28;19929;-82
2023/03/08 00:57:42;;;;;;;;;;;;;;;;;;4921912;28;19922;-82
2023/03/08 01:00:11;;;;;;;;;;;;;;;;;;4931846;29;19914;-81
2023/03/08 01:02:39;;;;;;;;;;;;;;;;;;4916970;29;19919;-82
2023/03/08 01:05:05;;;;;;;;;;;;;;;;;;4954809;28;19918;-82
2023/03/08 01:07:31;;;;;;;;;;;;;;;;;;4936718;28;20034;-82
2023/03/08 01:09:56;;;;;;;;;;;;;;;;;;4925134;28;19918;-82
2023/03/08 01:12:22;;;;;;;;;;;;;;;;;;4950178;28;20581;-82
2023/03/08 01:14:47;;;;;;;;;;;;;;;;;;4943972;28;20367;-82
2023/03/08 01:17:13;;;;;;;;;;;;;;;;;;4936426;28;19928;-82
2023/03/08 01:19:38;;;;;;;;;;;;;;;;;;4924172;28;19941;-80
2023/03/08 01:22:03;;;;;;;;;;;;;;;;;;4942790;28;20009;-83
2023/03/08 01:24:28;;;;;;;;;;;;;;;;;;4933134;28;19918;-83
2023/03/08 01:26:57;;;;;;;;;;;;;;;;;;4924910;28;20283;-82
2023/03/08 01:29:22;;;;;;;;;;;;;;;;;;4946447;28;19924;-83
2023/03/08 01:31:48;;;;;;;;;;;;;;;;;;4917111;28;19918;-82
2023/03/08 01:34:13;;;;;;;;;;;;;;;;;;4946719;28;19926;-80
2023/03/08 01:36:38;;;;;;;;;;;;;;;;;;4952058;28;19971;-81
2023/03/08 01:39:04;;;;;;;;;;;;;;;;;;4951885;28;19918;-82
2023/03/08 01:41:29;;;;;;;;;;;;;;;;;;4941655;28;19951;-81
2023/03/08 01:43:55;;;;;;;;;;;;;;;;;;4953707;28;19918;-81
2023/03/08 01:46:33;;;;;;;;;;;;;;;;;;4951705;28;19925;-82
2023/03/08 01:49:06;;;;;;;;;;;;;;;;;;4944189;28;19964;-82
2023/03/08 01:51:38;;;;;;;;;;;;;;;;;;4943181;28;20434;-82
2023/03/08 01:54:05;;;;;;;;;;;;;;;;;;4939018;28;20275;-82
2023/03/08 01:56:30;;;;;;;;;;;;;;;;;;4916772;28;19930;-82
2023/03/08 01:58:56;;;;;;;;;;;;;;;;;;4933599;28;20306;-82
2023/03/08 02:01:21;;;;;;;;;;;;;;;;;;4942255;28;19918;-81
2023/03/08 02:06:21;;;;;;;;;;;;;;;;;;5445552;23;19981;-80
2023/03/08 02:08:47;;;;;;;;;;;;;;;;;;4953313;28;19917;-80
2023/03/08 02:11:12;;;;;;;;;;;;;;;;;;4949267;28;19934;-79
2023/03/08 02:13:38;;;;;;;;;;;;;;;;;;4956444;28;19918;-80
2023/03/08 02:16:04;;;;;;;;;;;;;;;;;;4968075;28;19914;-80
2023/03/08 02:18:29;;;;;;;;;;;;;;;;;;4955628;28;20369;-80
2023/03/08 02:20:54;;;;;;;;;;;;;;;;;;4955726;28;19981;-80
2023/03/08 02:23:21;;;;;;;;;;;;;;;;;;4970604;28;19965;-80
2023/03/08 02:25:56;;;;;;;;;;;;;;;;;;4954620;28;19949;-80
2023/03/08 02:28:22;;;;;;;;;;;;;;;;;;4957367;28;19918;-80
2023/03/08 02:30:48;;;;;;;;;;;;;;;;;;4954527;28;19913;-80
2023/03/08 02:33:13;;;;;;;;;;;;;;;;;;4953009;28;20400;-80
2023/03/08 02:35:41;;;;;;;;;;;;;;;;;;4948278;28;19914;-81
2023/03/08 02:38:06;;;;;;;;;;;;;;;;;;4957640;28;19926;-80
2023/03/08 02:40:32;;;;;;;;;;;;;;;;;;4959213;28;19973;-81
2023/03/08 02:42:57;;;;;;;;;;;;;;;;;;4968863;28;20337;-80
2023/03/08 02:45:22;;;;;;;;;;;;;;;;;;4970396;28;19944;-80
2023/03/08 02:47:47;;;;;;;;;;;;;;;;;;4957915;28;20445;-81
2023/03/08 02:50:13;;;;;;;;;;;;;;;;;;4968954;28;19924;-80
2023/03/08 02:52:38;;;;;;;;;;;;;;;;;;4969112;28;20038;-80
2023/03/08 02:55:03;;;;;;;;;;;;;;;;;;4968351;28;19985;-80
2023/03/08 02:57:29;;;;;;;;;;;;;;;;;;4968263;28;19929;-80
2023/03/08 02:59:54;;;;;;;;;;;;;;;;;;4956926;28;19917;-80
2023/03/08 03:02:19;;;;;;;;;;;;;;;;;;4956861;28;19918;-81
2023/03/08 03:04:45;;;;;;;;;;;;;;;;;;4966942;28;20005;-80
2023/03/08 03:07:10;;;;;;;;;;;;;;;;;;4936959;28;19922;-80
2023/03/08 03:09:35;;;;;;;;;;;;;;;;;;4947148;28;19941;-79
2023/03/08 03:12:00;;;;;;;;;;;;;;;;;;4939155;28;19918;-80
2023/03/08 03:14:26;;;;;;;;;;;;;;;;;;4954992;28;19964;-80
2023/03/08 03:16:52;;;;;;;;;;;;;;;;;;4956785;28;19940;-80
2023/03/08 03:19:17;;;;;;;;;;;;;;;;;;4944450;28;19984;-80
2023/03/08 03:21:42;;;;;;;;;;;;;;;;;;4940088;28;19976;-80
2023/03/08 03:24:08;;;;;;;;;;;;;;;;;;4957616;28;19914;-80
2023/03/08 03:26:33;;;;;;;;;;;;;;;;;;4958398;28;20008;-80
2023/03/08 03:28:58;;;;;;;;;;;;;;;;;;4959294;28;19922;-80
2023/03/08 03:31:23;;;;;;;;;;;;;;;;;;4939794;28;20366;-80
2023/03/08 03:33:49;;;;;;;;;;;;;;;;;;4931986;28;20002;-80
2023/03/08 03:36:15;;;;;;;;;;;;;;;;;;4953900;28;19994;-81
2023/03/08 03:38:41;;;;;;;;;;;;;;;;;;4940648;28;20358;-80
2023/03/08 03:41:07;;;;;;;;;;;;;;;;;;4944749;28;19925;-80
2023/03/08 03:43:33;;;;;;;;;;;;;;;;;;4948668;28;20459;-80
2023/03/08 03:45:59;;;;;;;;;;;;;;;;;;4944291;28;19921;-81
2023/03/08 03:48:24;;;;;;;;;;;;;;;;;;4962607;28;19953;-80
2023/03/08 03:51:00;;;;;;;;;;;;;;;;;;4956612;28;19918;-81
2023/03/08 03:53:26;;;;;;;;;;;;;;;;;;4944951;28;19960;-80
2023/03/08 03:55:51;;;;;;;;;;;;;;;;;;4944557;28;19918;-80
2023/03/08 03:58:17;;;;;;;;;;;;;;;;;;4945537;28;19918;-80
2023/03/08 04:00:44;;;;;;;;;;;;;;;;;;4963345;28;19922;-80
2023/03/08 04:03:09;;;;;;;;;;;;;;;;;;4953309;28;19922;-81
2023/03/08 04:05:35;;;;;;;;;;;;;;;;;;4924190;28;1139028;-79
2023/03/08 04:08:00;;;;;;;;;;;;;;;;;;4949834;28;19918;-80
2023/03/08 04:10:25;;;;;;;;;;;;;;;;;;4959540;28;19922;-79
2023/03/08 04:12:51;;;;;;;;;;;;;;;;;;4963104;28;19922;-79
2023/03/08 04:15:16;;;;;;;;;;;;;;;;;;4962726;28;19939;-79
2023/03/08 04:17:42;;;;;;;;;;;;;;;;;;4957843;28;19993;-79
2023/03/08 04:20:07;;;;;;;;;;;;;;;;;;4959596;28;20037;-80
2023/03/08 04:22:32;;;;;;;;;;;;;;;;;;4963722;28;20281;-80
2023/03/08 04:24:58;;;;;;;;;;;;;;;;;;4961903;28;20000;-78
2023/03/08 04:27:23;;;;;;;;;;;;;;;;;;4943562;28;19927;-79
2023/03/08 04:29:48;;;;;;;;;;;;;;;;;;4959928;28;19914;-80
2023/03/08 04:32:14;;;;;;;;;;;;;;;;;;4958068;28;19980;-80
2023/03/08 04:34:39;;;;;;;;;;;;;;;;;;4952270;28;19918;-80
2023/03/08 04:37:04;;;;;;;;;;;;;;;;;;4944026;28;20357;-80
2023/03/08 04:39:30;;;;;;;;;;;;;;;;;;4961078;28;19921;-79
2023/03/08 04:41:55;;;;;;;;;;;;;;;;;;4959210;28;19914;-79
2023/03/08 04:44:20;;;;;;;;;;;;;;;;;;4951585;28;19918;-79
2023/03/08 04:46:45;;;;;;;;;;;;;;;;;;4941330;28;19925;-79
2023/03/08 04:49:11;;;;;;;;;;;;;;;;;;4961703;28;19985;-82
2023/03/08 04:51:36;;;;;;;;;;;;;;;;;;4963667;28;19918;-82
2023/03/08 04:54:03;;;;;;;;;;;;;;;;;;4961429;28;19918;-83
2023/03/08 04:56:28;;;;;;;;;;;;;;;;;;4962150;28;20385;-82
2023/03/08 04:58:54;;;;;;;;;;;;;;;;;;4960731;28;19921;-82
2023/03/08 05:01:21;;;;;;;;;;;;;;;;;;4951327;28;19918;-82
2023/03/08 05:03:48;;;;;;;;;;;;;;;;;;4962350;28;19921;-83
2023/03/08 05:06:14;;;;;;;;;;;;;;;;;;4959158;28;19925;-83
2023/03/08 05:08:39;;;;;;;;;;;;;;;;;;4960074;28;20392;-83
2023/03/08 05:11:04;;;;;;;;;;;;;;;;;;4958300;28;19914;-84
2023/03/08 05:13:31;;;;;;;;;;;;;;;;;;4959225;28;20377;-83
2023/03/08 05:15:56;;;;;;;;;;;;;;;;;;4951088;28;19918;-84
2023/03/08 05:18:22;;;;;;;;;;;;;;;;;;4950280;28;19928;-85
2023/03/08 05:20:54;;;;;;;;;;;;;;;;;;4961815;28;19918;-85
2023/03/08 05:23:19;;;;;;;;;;;;;;;;;;4944674;28;19948;-84
2023/03/08 05:25:46;;;;;;;;;;;;;;;;;;4962347;28;19918;-85
2023/03/08 05:28:14;;;;;;;;;;;;;;;;;;4964479;28;19921;-84
2023/03/08 05:30:40;;;;;;;;;;;;;;;;;;4951102;28;19918;-84
2023/03/08 05:33:05;;;;;;;;;;;;;;;;;;4949574;28;20297;-85
2023/03/08 05:35:30;;;;;;;;;;;;;;;;;;4946265;28;19976;-85
2023/03/08 05:37:56;;;;;;;;;;;;;;;;;;4944852;28;20366;-86
2023/03/08 05:40:21;;;;;;;;;;;;;;;;;;4946952;28;20748;-87
2023/03/08 05:42:46;;;;;;;;;;;;;;;;;;4962796;28;19918;-87
2023/03/08 05:45:11;;;;;;;;;;;;;;;;;;4957479;28;20385;-86
2023/03/08 05:47:37;;;;;;;;;;;;;;;;;;4959782;28;19918;-87
2023/03/08 05:50:02;;;;;;;;;;;;;;;;;;4954744;28;19922;-87
2023/03/08 05:52:28;;;;;;;;;;;;;;;;;;4966892;28;20540;-87
2023/03/08 05:54:53;;;;;;;;;;;;;;;;;;4946084;28;19914;-83
2023/03/08 05:57:19;;;;;;;;;;;;;;;;;;4958820;28;19949;-83
2023/03/08 05:59:44;;;;;;;;;;;;;;;;;;4943001;28;19918;-83
2023/03/08 06:02:09;;;;;;;;;;;;;;;;;;4949690;28;19918;-79
2023/03/08 06:04:34;;;;;;;;;;;;;;;;;;4959420;28;20314;-80
2023/03/08 06:07:00;;;;;;;;;;;;;;;;;;4950921;28;19926;-79
2023/03/08 06:09:25;;;;;;;;;;;;;;;;;;4956379;28;19922;-79
2023/03/08 06:11:50;;;;;;;;;;;;;;;;;;4950867;28;20275;-78
2023/03/08 06:14:16;;;;;;;;;;;;;;;;;;4942235;28;19925;-79
2023/03/08 06:16:41;;;;;;;;;;;;;;;;;;4950732;28;20147;-79
2023/03/08 06:19:06;;;;;;;;;;;;;;;;;;4946521;28;19924;-79
2023/03/08 06:21:31;;;;;;;;;;;;;;;;;;4956066;28;20013;-79
2023/03/08 06:23:57;;;;;;;;;;;;;;;;;;4960534;28;19949;-79
2023/03/08 06:26:22;;;;;;;;;;;;;;;;;;4947849;28;19960;-79
2023/03/08 06:28:47;;;;;;;;;;;;;;;;;;4958548;28;19985;-79
2023/03/08 06:31:14;;;;;;;;;;;;;;;;;;4958637;28;19960;-79
2023/03/08 06:33:39;;;;;;;;;;;;;;;;;;4942452;28;20388;-79
2023/03/08 06:36:06;;;;;;;;;;;;;;;;;;4957581;28;20005;-79
2023/03/08 06:38:31;;;;;;;;;;;;;;;;;;4941493;28;20010;-79
2023/03/08 06:40:57;;;;;;;;;;;;;;;;;;4955653;28;20352;-79
2023/03/08 06:43:22;;;;;;;;;;;;;;;;;;4959727;28;20376;-79
2023/03/08 06:45:47;;;;;;;;;;;;;;;;;;4946862;28;19925;-79
2023/03/08 06:48:13;;;;;;;;;;;;;;;;;;4957629;28;20392;-79
2023/03/08 06:50:38;;;;;;;;;;;;;;;;;;4945679;28;19914;-79
2023/03/08 06:53:04;;;;;;;;;;;;;;;;;;4957860;28;19918;-78
2023/03/08 06:55:29;;;;;;;;;;;;;;;;;;4947351;28;19958;-79
2023/03/08 06:57:54;;;;;;;;;;;;;;;;;;4957591;28;20012;-79
2023/03/08 07:00:20;;;;;;;;;;;;;;;;;;4958596;28;19923;-79
2023/03/08 07:02:47;;;;;;;;;;;;;;;;;;4943860;28;20025;-79
2023/03/08 07:05:12;;;;;;;;;;;;;;;;;;4940740;28;20009;-79
2023/03/08 07:07:38;;;;;;;;;;;;;;;;;;4944493;28;20001;-79
2023/03/08 07:10:04;;;;;;;;;;;;;;;;;;4959383;28;19921;-79
2023/03/08 07:12:31;;;;;;;;;;;;;;;;;;4953528;28;20388;-79
2023/03/08 07:14:56;;;;;;;;;;;;;;;;;;4946764;28;19915;-79
2023/03/08 07:17:21;;;;;;;;;;;;;;;;;;4958922;28;20377;-79
2023/03/08 07:19:47;;;;;;;;;;;;;;;;;;4946241;28;19941;-80
2023/03/08 07:22:12;;;;;;;;;;;;;;;;;;4951170;28;19914;-80
2023/03/08 07:24:37;;;;;;;;;;;;;;;;;;4966111;28;19961;-79
2023/03/08 07:27:03;;;;;;;;;;;;;;;;;;4948085;28;20776;-79
2023/03/08 07:29:28;;;;;;;;;;;;;;;;;;4941670;28;20041;-79
2023/03/08 07:31:53;;;;;;;;;;;;;;;;;;4956383;28;19933;-79
2023/03/08 07:34:19;;;;;;;;;;;;;;;;;;4960753;28;19929;-79
2023/03/08 07:36:44;;;;;;;;;;;;;;;;;;4958427;28;19922;-80
2023/03/08 07:39:09;;;;;;;;;;;;;;;;;;4942010;28;19917;-79
2023/03/08 07:41:34;;;;;;;;;;;;;;;;;;4958895;28;19921;-79
2023/03/08 07:44:01;;;;;;;;;;;;;;;;;;4955368;28;19918;-79
2023/03/08 07:46:27;;;;;;;;;;;;;;;;;;4947166;28;19942;-79
2023/03/08 07:48:52;;;;;;;;;;;;;;;;;;4957505;28;19953;-79
2023/03/08 07:51:18;;;;;;;;;;;;;;;;;;4962823;28;20004;-78
2023/03/08 07:53:43;;;;;;;;;;;;;;;;;;4958165;28;19919;-79
2023/03/08 07:56:09;;;;;;;;;;;;;;;;;;4960655;28;20013;-79
2023/03/08 07:58:34;;;;;;;;;;;;;;;;;;4961558;28;20032;-79
2023/03/08 08:00:59;;;;;;;;;;;;;;;;;;4946526;28;19914;-79
2023/03/08 08:03:25;;;;;;;;;;;;;;;;;;4960071;28;19914;-79
2023/03/08 08:05:50;;;;;;;;;;;;;;;;;;4953718;28;19930;-80
2023/03/08 08:08:15;;;;;;;;;;;;;;;;;;4944435;28;19918;-79
2023/03/08 08:10:41;;;;;;;;;;;;;;;;;;4959912;28;20009;-79
2023/03/08 08:13:06;;;;;;;;;;;;;;;;;;4964742;28;20373;-79
2023/03/08 08:15:31;;;;;;;;;;;;;;;;;;4963011;28;19969;-79
2023/03/08 08:17:57;;;;;;;;;;;;;;;;;;4960442;28;19922;-80
2023/03/08 08:20:23;;;;;;;;;;;;;;;;;;4950984;28;20289;-80
2023/03/08 08:22:52;;;;;;;;;;;;;;;;;;4955457;28;19925;-80
2023/03/08 08:25:17;;;;;;;;;;;;;;;;;;4958122;28;20409;-80
2023/03/08 08:27:42;;;;;;;;;;;;;;;;;;4948377;28;19945;-80
2023/03/08 08:30:08;;;;;;;;;;;;;;;;;;4943764;28;20012;-80
2023/03/08 08:32:34;;;;;;;;;;;;;;;;;;4958897;28;19925;-80
2023/03/08 08:34:59;;;;;;;;;;;;;;;;;;4963043;28;19922;-80
2023/03/08 08:37:24;;;;;;;;;;;;;;;;;;4960263;28;19922;-80
2023/03/08 08:39:50;;;;;;;;;;;;;;;;;;4958575;28;19925;-80
2023/03/08 08:42:15;;;;;;;;;;;;;;;;;;4952383;28;20370;-80
2023/03/08 08:44:40;;;;;;;;;;;;;;;;;;4942460;28;19925;-80
2023/03/08 08:47:05;;;;;;;;;;;;;;;;;;4956360;28;20021;-80
2023/03/08 08:49:31;;;;;;;;;;;;;;;;;;4943266;28;19918;-81
2023/03/08 08:51:59;;;;;;;;;;;;;;;;;;4944929;28;20338;-80
2023/03/08 08:54:25;;;;;;;;;;;;;;;;;;4938175;28;20344;-79
2023/03/08 08:56:50;;;;;;;;;;;;;;;;;;4950875;28;19927;-82
2023/03/08 08:59:15;;;;;;;;;;;;;;;;;;4942052;28;19918;-78
2023/03/08 09:01:43;;;;;;;;;;;;;;;;;;4943357;28;19918;-81
2023/03/08 09:04:12;;;;;;;;;;;;;;;;;;4961703;28;19993;-81
2023/03/08 09:06:38;;;;;;;;;;;;;;;;;;4948061;28;20450;-80
2023/03/08 09:09:04;;;;;;;;;;;;;;;;;;4961652;28;19997;-78
2023/03/08 09:11:29;;;;;;;;;;;;;;;;;;4959359;28;19929;-78
2023/03/08 09:13:55;;;;;;;;;;;;;;;;;;4943272;28;19914;-79
2023/03/08 09:16:21;;;;;;;;;;;;;;;;;;4941924;28;19918;-79
2023/03/08 09:18:46;;;;;;;;;;;;;;;;;;4959182;28;19918;-79
2023/03/08 09:21:13;;;;;;;;;;;;;;;;;;4943929;28;19925;-80
2023/03/08 09:23:38;;;;;;;;;;;;;;;;;;4950972;28;19914;-79
2023/03/08 09:26:04;;;;;;;;;;;;;;;;;;4951404;28;19969;-78
2023/03/08 09:28:30;;;;;;;;;;;;;;;;;;4946286;28;19914;-79
2023/03/08 09:30:55;;;;;;;;;;;;;;;;;;4957577;28;19918;-90
2023/03/08 09:33:20;;;;;;;;;;;;;;;;;;4961793;28;20040;-87
2023/03/08 09:35:53;;;;;;;;;;;;;;;;;;4960348;28;19959;-84
2023/03/08 09:38:19;;;;;;;;;;;;;;;;;;4965789;28;20173;-87
2023/03/08 09:40:48;;;;;;;;;;;;;;;;;;4948466;28;19992;-87
2023/03/08 09:43:18;;;;;;;;;;;;;;;;;;4951869;28;19942;-89
2023/03/08 09:45:43;;;;;;;;;;;;;;;;;;4961943;28;20365;-81
2023/03/08 09:48:13;;;;;;;;;;;;;;;;;;4952285;28;19972;-79
2023/03/08 09:50:49;;;;;;;;;;;;;;;;;;4962302;28;19988;-79
2023/03/08 09:53:20;;;;;;;;;;;;;;;;;;4961065;28;20026;-79
2023/03/08 09:56:04;;;;;;;;;;;;;;;;;;4960391;28;19918;-80
2023/03/08 09:58:44;;;;;;;;;;;;;;;;;;4963538;28;20328;-80
2023/03/08 10:01:25;;;;;;;;;;;;;;;;;;4972749;28;20388;-80
2023/03/08 10:03:59;;;;;;;;;;;;;;;;;;4958196;28;19925;-80
2023/03/08 10:06:40;;;;;;;;;;;;;;;;;;4972905;28;20387;-79
2023/03/08 10:09:40;;;;;;;;;;;;;;;;;;4952572;28;20300;-78
2023/03/08 10:12:06;;;;;;;;;;;;;;;;;;4890767;29;20417;-79
2023/03/08 10:14:32;;;;;;;;;;;;;;;;;;4930085;28;20005;-79
2023/03/08 10:16:59;;;;;;;;;;;;;;;;;;4925383;28;19922;-79
2023/03/08 10:19:45;;;;;;;;;;;;;;;;;;4939348;28;19925;-82
2023/03/08 10:22:15;;;;;;;;;;;;;;;;;;4936818;28;19970;-80
2023/03/08 10:24:51;;;;;;;;;;;;;;;;;;4956871;28;19918;-80
2023/03/08 10:27:24;;;;;;;;;;;;;;;;;;4939041;28;20285;-79
2023/03/08 10:29:50;;;;;;;;;;;;;;;;;;4937329;28;19925;-79
2023/03/08 10:32:15;;;;;;;;;;;;;;;;;;4936407;28;20751;-80
2023/03/08 10:34:40;;;;;;;;;;;;;;;;;;4937052;28;19918;-80
2023/03/08 10:37:06;;;;;;;;;;;;;;;;;;4938583;28;20325;-79
2023/03/08 10:39:31;;;;;;;;;;;;;;;;;;4939035;28;19915;-79
2023/03/08 10:42:00;;;;;;;;;;;;;;;;;;4938938;28;19921;-80
2023/03/08 10:44:39;;;;;;;;;;;;;;;;;;4944516;28;20270;-82
2023/03/08 10:47:16;;;;;;;;;;;;;;;;;;4942353;28;19925;-81
2023/03/08 10:49:42;;;;;;;;;;;;;;;;;;4956291;28;19922;-82
2023/03/08 10:52:24;;;;;;;;;;;;;;;;;;4940092;28;19981;-81
2023/03/08 10:55:06;;;;;;;;;;;;;;;;;;4939056;28;20375;-81
2023/03/08 10:57:31;;;;;;;;;;;;;;;;;;4950147;28;19925;-82
2023/03/08 11:00:16;;;;;;;;;;;;;;;;;;4940655;28;20297;-82
2023/03/08 11:02:42;;;;;;;;;;;;;;;;;;4958453;28;20262;-82
2023/03/08 11:05:18;;;;;;;;;;;;;;;;;;4957386;28;19991;-81
2023/03/08 11:07:49;;;;;;;;;;;;;;;;;;4957084;28;19914;-81
2023/03/08 11:10:15;;;;;;;;;;;;;;;;;;4958024;28;20009;-81
2023/03/08 11:12:41;;;;;;;;;;;;;;;;;;4943109;28;19941;-81
2023/03/08 11:15:15;;;;;;;;;;;;;;;;;;4942544;28;19918;-82
2023/03/08 11:17:50;;;;;;;;;;;;;;;;;;4947971;28;20440;-81
2023/03/08 11:20:20;;;;;;;;;;;;;;;;;;4949234;28;19918;-80
2023/03/08 11:23:03;;;;;;;;;;;;;;;;;;4947940;28;19926;-81
2023/03/08 11:25:32;;;;;;;;;;;;;;;;;;4962041;28;19918;-80
2023/03/08 11:28:15;;;;;;;;;;;;;;;;;;4941590;28;20377;-82
2023/03/08 11:31:11;;;;;;;;;;;;;;;;;;4958743;28;19918;-81
2023/03/08 11:33:43;;;;;;;;;;;;;;;;;;4903436;28;19915;-81
2023/03/08 11:36:12;;;;;;;;;;;;;;;;;;4957971;28;19918;-81
2023/03/08 11:38:38;;;;;;;;;;;;;;;;;;4961725;28;19918;-81
2023/03/08 11:41:17;;;;;;;;;;;;;;;;;;4945263;28;19925;-83
2023/03/08 11:43:45;;;;;;;;;;;;;;;;;;4945564;28;19971;-81
2023/03/08 11:46:13;;;;;;;;;;;;;;;;;;4937954;28;19918;-82
2023/03/08 11:48:57;;;;;;;;;;;;;;;;;;4958004;28;20338;-82
2023/03/08 11:51:25;;;;;;;;;;;;;;;;;;4956942;28;20159;-82
2023/03/08 11:53:50;;;;;;;;;;;;;;;;;;4957721;28;19973;-82
2023/03/08 11:56:16;;;;;;;;;;;;;;;;;;4958366;28;20374;-81
2023/03/08 11:58:51;;;;;;;;;;;;;;;;;;4957388;28;20356;-82
2023/03/08 12:01:18;;;;;;;;;;;;;;;;;;4949356;28;19919;-82
2023/03/08 12:03:45;;;;;;;;;;;;;;;;;;4946720;28;20215;-82
2023/03/08 12:06:19;;;;;;;;;;;;;;;;;;4941862;28;19934;-82
2023/03/08 12:08:50;;;;;;;;;;;;;;;;;;4940968;28;19922;-82
2023/03/08 12:11:31;;;;;;;;;;;;;;;;;;4955847;28;19926;-80
2023/03/08 12:14:15;;;;;;;;;;;;;;;;;;4946025;28;19915;-81
2023/03/08 12:16:47;;;;;;;;;;;;;;;;;;4941350;28;19922;-81
2023/03/08 12:19:28;;;;;;;;;;;;;;;;;;4956887;28;20329;-81
2023/03/08 12:21:58;;;;;;;;;;;;;;;;;;4957293;28;19989;-82
2023/03/08 12:24:27;;;;;;;;;;;;;;;;;;4959692;28;19918;-83
2023/03/08 12:27:04;;;;;;;;;;;;;;;;;;4956818;28;19918;-81
2023/03/08 12:29:50;;;;;;;;;;;;;;;;;;4950815;28;19922;-81
2023/03/08 12:32:15;;;;;;;;;;;;;;;;;;4940745;28;19925;-80
2023/03/08 12:34:42;;;;;;;;;;;;;;;;;;4940513;28;19914;-80
2023/03/08 12:37:36;;;;;;;;;;;;;;;;;;4946307;28;19922;-80
2023/03/08 12:40:06;;;;;;;;;;;;;;;;;;4918124;29;19926;-79
2023/03/08 12:42:34;;;;;;;;;;;;;;;;;;4954437;28;19942;-79
2023/03/08 12:45:06;;;;;;;;;;;;;;;;;;4958391;28;19923;-80
2023/03/08 12:47:31;;;;;;;;;;;;;;;;;;4957237;28;19918;-79
2023/03/08 12:49:57;;;;;;;;;;;;;;;;;;4960929;28;19945;-80
2023/03/08 12:52:27;;;;;;;;;;;;;;;;;;4959389;28;19924;-80
2023/03/08 12:54:57;;;;;;;;;;;;;;;;;;4960072;28;19922;-80
2023/03/08 12:57:23;;;;;;;;;;;;;;;;;;4943485;28;19977;-82
2023/03/08 12:59:54;;;;;;;;;;;;;;;;;;4959638;28;19974;-81
2023/03/08 13:02:22;;;;;;;;;;;;;;;;;;4950122;28;19988;-80
2023/03/08 13:04:48;;;;;;;;;;;;;;;;;;4980888;28;20381;-80
2023/03/08 13:07:32;;;;;;;;;;;;;;;;;;4956879;28;19962;-80
2023/03/08 13:10:08;;;;;;;;;;;;;;;;;;4981230;28;19922;-80
2023/03/08 13:12:36;;;;;;;;;;;;;;;;;;4958674;28;20373;-79
2023/03/08 13:15:07;;;;;;;;;;;;;;;;;;4950250;28;19918;-79
2023/03/08 13:17:35;;;;;;;;;;;;;;;;;;4956535;28;20389;-78
2023/03/08 13:20:08;;;;;;;;;;;;;;;;;;4946741;28;19923;-80
2023/03/08 13:22:46;;;;;;;;;;;;;;;;;;4932236;28;20440;-80
2023/03/08 13:25:22;;;;;;;;;;;;;;;;;;4947091;28;20568;-80
2023/03/08 13:27:50;;;;;;;;;;;;;;;;;;4959193;28;19961;-79
2023/03/08 13:30:22;;;;;;;;;;;;;;;;;;4960219;28;19981;-79
2023/03/08 13:32:48;;;;;;;;;;;;;;;;;;4954030;28;19968;-79
2023/03/08 13:35:14;;;;;;;;;;;;;;;;;;4958962;28;19921;-80
2023/03/08 13:37:39;;;;;;;;;;;;;;;;;;4959527;28;20328;-79
2023/03/08 13:40:13;;;;;;;;;;;;;;;;;;4942020;28;19969;-80
2023/03/08 13:42:39;;;;;;;;;;;;;;;;;;4961507;28;19922;-79
2023/03/08 13:45:09;;;;;;;;;;;;;;;;;;4955002;28;19921;-79
2023/03/08 13:47:34;;;;;;;;;;;;;;;;;;4956228;28;20285;-79
2023/03/08 13:50:00;;;;;;;;;;;;;;;;;;4943820;28;19922;-80
2023/03/08 13:52:28;;;;;;;;;;;;;;;;;;4959711;28;20356;-79
2023/03/08 13:54:55;;;;;;;;;;;;;;;;;;4942072;28;20365;-79
2023/03/08 13:57:24;;;;;;;;;;;;;;;;;;4946815;28;19918;-81
2023/03/08 13:59:51;;;;;;;;;;;;;;;;;;4959805;28;19922;-81
2023/03/08 14:02:18;;;;;;;;;;;;;;;;;;4958107;28;19918;-81
2023/03/08 14:04:44;;;;;;;;;;;;;;;;;;4942007;28;20362;-81
2023/03/08 14:07:13;;;;;;;;;;;;;;;;;;4956720;28;19980;-81
2023/03/08 14:09:39;;;;;;;;;;;;;;;;;;4944304;28;19964;-81
2023/03/08 14:12:04;;;;;;;;;;;;;;;;;;4948794;28;19918;-81
2023/03/08 14:14:34;;;;;;;;;;;;;;;;;;4945015;28;19941;-81
2023/03/08 14:16:59;;;;;;;;;;;;;;;;;;4946529;28;19961;-81
2023/03/08 14:19:26;;;;;;;;;;;;;;;;;;4956189;28;19949;-80
2023/03/08 14:21:55;;;;;;;;;;;;;;;;;;4945976;28;20441;-81
2023/03/08 14:24:22;;;;;;;;;;;;;;;;;;4947106;28;19914;-81
2023/03/08 14:27:00;;;;;;;;;;;;;;;;;;4951857;28;19918;-81
2023/03/08 14:29:26;;;;;;;;;;;;;;;;;;4962914;28;19973;-81
2023/03/08 14:32:01;;;;;;;;;;;;;;;;;;4956885;28;19918;-82
2023/03/08 14:34:32;;;;;;;;;;;;;;;;;;4977576;28;19922;-80
2023/03/08 14:36:59;;;;;;;;;;;;;;;;;;4944358;28;19973;-81
2023/03/08 14:39:25;;;;;;;;;;;;;;;;;;4959748;28;19925;-81
2023/03/08 14:41:52;;;;;;;;;;;;;;;;;;4956835;28;19922;-80
2023/03/08 14:44:21;;;;;;;;;;;;;;;;;;4960477;28;20012;-81
2023/03/08 14:46:46;;;;;;;;;;;;;;;;;;4941012;28;20456;-81
2023/03/08 14:49:19;;;;;;;;;;;;;;;;;;4940499;28;19922;-81
2023/03/08 14:51:44;;;;;;;;;;;;;;;;;;4937809;28;20801;-82
2023/03/08 14:54:28;;;;;;;;;;;;;;;;;;4942591;28;19922;-82
2023/03/08 14:56:53;;;;;;;;;;;;;;;;;;4955613;28;19922;-82
2023/03/08 14:59:21;;;;;;;;;;;;;;;;;;4955947;28;19925;-80
2023/03/08 15:01:46;;;;;;;;;;;;;;;;;;4953837;28;19925;-84
2023/03/08 15:04:16;;;;;;;;;;;;;;;;;;4956790;28;19922;-86
2023/03/08 15:06:43;;;;;;;;;;;;;;;;;;4956777;28;20051;-87
2023/03/08 15:09:08;;;;;;;;;;;;;;;;;;4961621;28;19914;-86
2023/03/08 15:11:34;;;;;;;;;;;;;;;;;;4961841;28;20570;-85
2023/03/08 15:13:59;;;;;;;;;;;;;;;;;;4955414;28;19918;-86
2023/03/08 15:16:25;;;;;;;;;;;;;;;;;;4945487;28;19980;-85
2023/03/08 15:18:50;;;;;;;;;;;;;;;;;;4962251;28;19953;-85
2023/03/08 15:21:17;;;;;;;;;;;;;;;;;;4958758;28;20281;-86
2023/03/08 15:23:42;;;;;;;;;;;;;;;;;;4960224;28;19925;-85
2023/03/08 15:26:09;;;;;;;;;;;;;;;;;;4954901;28;19914;-85
2023/03/08 15:28:35;;;;;;;;;;;;;;;;;;4943479;28;19919;-86
2023/03/08 15:31:00;;;;;;;;;;;;;;;;;;4964549;28;19929;-86
2023/03/08 15:33:25;;;;;;;;;;;;;;;;;;4950041;28;19922;-86
2023/03/08 15:35:50;;;;;;;;;;;;;;;;;;4955255;28;19925;-85
2023/03/08 15:38:16;;;;;;;;;;;;;;;;;;4957469;28;19954;-86
2023/03/08 15:40:42;;;;;;;;;;;;;;;;;;4942300;28;20382;-85
2023/03/08 15:43:07;;;;;;;;;;;;;;;;;;4945418;28;19925;-87
2023/03/08 15:45:32;;;;;;;;;;;;;;;;;;4960039;28;20311;-86
2023/03/08 15:48:06;;;;;;;;;;;;;;;;;;4959537;28;20475;-86
2023/03/08 15:50:32;;;;;;;;;;;;;;;;;;4950096;28;20641;-87
2023/03/08 15:52:57;;;;;;;;;;;;;;;;;;4944740;28;19918;-86
2023/03/08 15:55:25;;;;;;;;;;;;;;;;;;4950805;28;21262;-87
2023/03/08 15:57:50;;;;;;;;;;;;;;;;;;4943570;28;19918;-86
2023/03/08 16:00:16;;;;;;;;;;;;;;;;;;4951501;28;19918;-86
2023/03/08 16:02:41;;;;;;;;;;;;;;;;;;4960556;28;19938;-87
2023/03/08 16:05:07;;;;;;;;;;;;;;;;;;4959876;28;20469;-84
2023/03/08 16:07:33;;;;;;;;;;;;;;;;;;4964716;28;19918;-85
2023/03/08 16:09:58;;;;;;;;;;;;;;;;;;4950605;28;19923;-85
2023/03/08 16:12:23;;;;;;;;;;;;;;;;;;4959942;28;19922;-84
2023/03/08 16:14:49;;;;;;;;;;;;;;;;;;4959036;28;19985;-85
2023/03/08 16:17:14;;;;;;;;;;;;;;;;;;4962586;28;19928;-85
2023/03/08 16:19:40;;;;;;;;;;;;;;;;;;4960522;28;19918;-84
2023/03/08 16:22:05;;;;;;;;;;;;;;;;;;4944583;28;19957;-84
2023/03/08 16:24:30;;;;;;;;;;;;;;;;;;4947294;28;19977;-85
2023/03/08 16:26:56;;;;;;;;;;;;;;;;;;4945509;28;20263;-85
2023/03/08 16:29:22;;;;;;;;;;;;;;;;;;4943917;28;19924;-85
2023/03/08 16:31:47;;;;;;;;;;;;;;;;;;4960036;28;20329;-85
2023/03/08 16:34:12;;;;;;;;;;;;;;;;;;4962705;28;20025;-85
2023/03/08 16:36:38;;;;;;;;;;;;;;;;;;4960748;28;19918;-85
2023/03/08 16:39:04;;;;;;;;;;;;;;;;;;4963795;28;19914;-86
2023/03/08 16:41:31;;;;;;;;;;;;;;;;;;4954181;28;19997;-85
2023/03/08 16:43:57;;;;;;;;;;;;;;;;;;4944090;28;19925;-86
2023/03/08 16:46:22;;;;;;;;;;;;;;;;;;4960625;28;19918;-85
2023/03/08 16:48:48;;;;;;;;;;;;;;;;;;4954490;28;20005;-85
2023/03/08 16:51:14;;;;;;;;;;;;;;;;;;4966540;28;19918;-86